sensor_id;sensor_type;location;lat;lon;timestamp;temperature;humidity
19152;DHT22;9708;53.114;9.388;2024-03-29T00:02:19;7.50;99.90
19152;DHT22;9708;53.114;9.388;2024-03-29T00:04:45;7.40;99.90
19152;DHT22;9708;53.114;9.388;2024-03-29T00:07:11;7.50;99.90
19152;DHT22;9708;53.114;9.388;2024-03-29T00:09:38;7.50;99.90
19152;DHT22;9708;53.114;9.388;2024-03-29T00:12:05;7.40;99.90
19152;DHT22;9708;53.114;9.388;2024-03-29T00:14:31;7.30;99.90
19152;DHT22;9708;53.114;9.388;2024-03-29T00:16:57;7.40;99.90
19152;DHT22;9708;53.114;9.388;2024-03-29T00:19:23;7.40;99.90
19152;DHT22;9708;53.114;9.388;2024-03-29T00:21:49;7.40;99.90
19152;DHT22;9708;53.114;9.388;2024-03-29T00:24:15;7.40;99.90
19152;DHT22;9708;53.114;9.388;2024-03-29T00:26:42;7.40;99.90
19152;DHT22;9708;53.114;9.388;2024-03-29T00:29:08;7.50;99.90
19152;DHT22;9708;53.114;9.388;2024-03-29T00:31:34;7.50;99.90
19152;DHT22;9708;53.114;9.388;2024-03-29T00:34:00;7.40;99.90
19152;DHT22;9708;53.114;9.388;2024-03-29T00:36:26;7.30;99.90
19152;DHT22;9708;53.114;9.388;2024-03-29T00:38:52;7.40;99.90
19152;DHT22;9708;53.114;9.388;2024-03-29T00:41:17;7.30;99.90
19152;DHT22;9708;53.114;9.388;2024-03-29T00:43:45;7.30;99.90
19152;DHT22;9708;53.114;9.388;2024-03-29T00:46:11;7.30;99.90
19152;DHT22;9708;53.114;9.388;2024-03-29T00:48:36;7.30;99.90
19152;DHT22;9708;53.114;9.388;2024-03-29T00:51:03;7.30;99.90
19152;DHT22;9708;53.114;9.388;2024-03-29T00:53:29;7.30;99.90
19152;DHT22;9708;53.114;9.388;2024-03-29T00:55:55;7.30;99.90
19152;DHT22;9708;53.114;9.388;2024-03-29T00:58:21;7.40;99.90
19152;DHT22;9708;53.114;9.388;2024-03-29T01:00:48;7.30;99.90
19152;DHT22;9708;53.114;9.388;2024-03-29T01:03:14;7.20;99.90
19152;DHT22;9708;53.114;9.388;2024-03-29T01:05:40;7.20;99.90
19152;DHT22;9708;53.114;9.388;2024-03-29T01:08:06;7.30;99.90
19152;DHT22;9708;53.114;9.388;2024-03-29T01:10:32;7.30;99.90
19152;DHT22;9708;53.114;9.388;2024-03-29T01:12:58;7.40;99.90
19152;DHT22;9708;53.114;9.388;2024-03-29T01:15:24;7.40;99.90
19152;DHT22;9708;53.114;9.388;2024-03-29T01:17:51;7.30;99.90
19152;DHT22;9708;53.114;9.388;2024-03-29T01:20:17;7.40;99.90
19152;DHT22;9708;53.114;9.388;2024-03-29T01:22:43;7.40;99.90
19152;DHT22;9708;53.114;9.388;2024-03-29T01:25:08;7.50;99.90
19152;DHT22;9708;53.114;9.388;2024-03-29T01:27:34;7.40;99.90
19152;DHT22;9708;53.114;9.388;2024-03-29T01:30:00;7.50;99.90
19152;DHT22;9708;53.114;9.388;2024-03-29T01:32:26;7.40;99.90
19152;DHT22;9708;53.114;9.388;2024-03-29T01:34:54;7.40;99.90
19152;DHT22;9708;53.114;9.388;2024-03-29T01:37:19;7.40;99.90
19152;DHT22;9708;53.114;9.388;2024-03-29T01:39:45;7.40;99.90
19152;DHT22;9708;53.114;9.388;2024-03-29T01:42:11;7.40;99.90
19152;DHT22;9708;53.114;9.388;2024-03-29T01:44:37;7.40;99.90
19152;DHT22;9708;53.114;9.388;2024-03-29T01:47:04;7.30;99.90
19152;DHT22;9708;53.114;9.388;2024-03-29T01:49:31;7.40;99.90
19152;DHT22;9708;53.114;9.388;2024-03-29T01:52:00;7.40;99.90
19152;DHT22;9708;53.114;9.388;2024-03-29T01:54:28;7.50;99.90
19152;DHT22;9708;53.114;9.388;2024-03-29T01:56:55;7.50;99.90
19152;DHT22;9708;53.114;9.388;2024-03-29T01:59:22;7.50;99.90
19152;DHT22;9708;53.114;9.388;2024-03-29T02:01:49;7.40;99.90
19152;DHT22;9708;53.114;9.388;2024-03-29T02:04:16;7.20;99.90
19152;DHT22;9708;53.114;9.388;2024-03-29T02:06:43;7.40;99.90
19152;DHT22;9708;53.114;9.388;2024-03-29T02:09:11;7.40;99.90
19152;DHT22;9708;53.114;9.388;2024-03-29T02:11:38;7.50;99.90
19152;DHT22;9708;53.114;9.388;2024-03-29T02:14:05;7.40;99.90
19152;DHT22;9708;53.114;9.388;2024-03-29T02:16:32;7.40;99.90
19152;DHT22;9708;53.114;9.388;2024-03-29T02:18:59;7.30;99.90
19152;DHT22;9708;53.114;9.388;2024-03-29T02:21:26;7.40;99.90
19152;DHT22;9708;53.114;9.388;2024-03-29T02:24:05;7.40;99.90
19152;DHT22;9708;53.114;9.388;2024-03-29T02:26:32;7.40;99.90
19152;DHT22;9708;53.114;9.388;2024-03-29T02:29:01;7.40;99.90
19152;DHT22;9708;53.114;9.388;2024-03-29T02:31:29;7.30;99.90
19152;DHT22;9708;53.114;9.388;2024-03-29T02:33:56;7.30;99.90
19152;DHT22;9708;53.114;9.388;2024-03-29T02:36:23;7.20;99.90
19152;DHT22;9708;53.114;9.388;2024-03-29T02:38:49;7.20;99.90
19152;DHT22;9708;53.114;9.388;2024-03-29T02:41:18;7.20;99.90
19152;DHT22;9708;53.114;9.388;2024-03-29T02:43:45;7.20;99.90
19152;DHT22;9708;53.114;9.388;2024-03-29T02:46:11;7.20;99.90
19152;DHT22;9708;53.114;9.388;2024-03-29T02:48:38;7.30;99.90
19152;DHT22;9708;53.114;9.388;2024-03-29T02:51:04;7.40;99.90
19152;DHT22;9708;53.114;9.388;2024-03-29T02:53:31;7.40;99.90
19152;DHT22;9708;53.114;9.388;2024-03-29T02:55:58;7.50;99.90
19152;DHT22;9708;53.114;9.388;2024-03-29T02:58:25;7.50;99.90
19152;DHT22;9708;53.114;9.388;2024-03-29T03:00:52;7.50;99.90
19152;DHT22;9708;53.114;9.388;2024-03-29T03:03:18;7.50;99.90
19152;DHT22;9708;53.114;9.388;2024-03-29T03:05:45;7.50;99.90
19152;DHT22;9708;53.114;9.388;2024-03-29T03:08:10;7.50;99.90
19152;DHT22;9708;53.114;9.388;2024-03-29T03:10:55;7.50;99.90
19152;DHT22;9708;53.114;9.388;2024-03-29T03:13:28;7.40;99.90
19152;DHT22;9708;53.114;9.388;2024-03-29T03:15:56;7.50;99.90
19152;DHT22;9708;53.114;9.388;2024-03-29T03:18:22;7.50;99.90
19152;DHT22;9708;53.114;9.388;2024-03-29T03:20:52;7.50;99.90
19152;DHT22;9708;53.114;9.388;2024-03-29T03:23:18;7.40;99.90
19152;DHT22;9708;53.114;9.388;2024-03-29T03:25:45;7.50;99.90
19152;DHT22;9708;53.114;9.388;2024-03-29T03:28:11;7.40;99.90
19152;DHT22;9708;53.114;9.388;2024-03-29T03:30:40;7.50;99.90
19152;DHT22;9708;53.114;9.388;2024-03-29T03:33:06;7.40;99.90
19152;DHT22;9708;53.114;9.388;2024-03-29T03:35:33;7.30;99.90
19152;DHT22;9708;53.114;9.388;2024-03-29T03:37:58;7.30;99.90
19152;DHT22;9708;53.114;9.388;2024-03-29T03:40:25;7.40;99.90
19152;DHT22;9708;53.114;9.388;2024-03-29T03:42:51;7.30;99.90
19152;DHT22;9708;53.114;9.388;2024-03-29T03:45:18;7.30;99.90
19152;DHT22;9708;53.114;9.388;2024-03-29T03:47:45;7.40;99.90
19152;DHT22;9708;53.114;9.388;2024-03-29T03:50:12;7.30;99.90
19152;DHT22;9708;53.114;9.388;2024-03-29T03:52:38;7.30;99.90
19152;DHT22;9708;53.114;9.388;2024-03-29T03:55:05;7.30;99.90
19152;DHT22;9708;53.114;9.388;2024-03-29T03:57:31;7.20;99.90
19152;DHT22;9708;53.114;9.388;2024-03-29T03:59:59;7.30;99.90
19152;DHT22;9708;53.114;9.388;2024-03-29T04:02:25;7.30;99.90
19152;DHT22;9708;53.114;9.388;2024-03-29T04:04:53;7.30;99.90
19152;DHT22;9708;53.114;9.388;2024-03-29T04:07:19;7.30;99.90
19152;DHT22;9708;53.114;9.388;2024-03-29T04:09:49;7.40;99.90
19152;DHT22;9708;53.114;9.388;2024-03-29T04:12:15;7.50;99.90
19152;DHT22;9708;53.114;9.388;2024-03-29T04:14:42;7.50;99.90
19152;DHT22;9708;53.114;9.388;2024-03-29T04:17:08;7.50;99.90
19152;DHT22;9708;53.114;9.388;2024-03-29T04:19:35;7.40;99.90
19152;DHT22;9708;53.114;9.388;2024-03-29T04:22:03;7.40;99.90
19152;DHT22;9708;53.114;9.388;2024-03-29T04:24:30;7.40;99.90
19152;DHT22;9708;53.114;9.388;2024-03-29T04:26:56;7.40;99.90
19152;DHT22;9708;53.114;9.388;2024-03-29T04:29:23;7.40;99.90
19152;DHT22;9708;53.114;9.388;2024-03-29T04:31:50;7.40;99.90
19152;DHT22;9708;53.114;9.388;2024-03-29T04:34:16;7.40;99.90
19152;DHT22;9708;53.114;9.388;2024-03-29T04:36:43;7.40;99.90
19152;DHT22;9708;53.114;9.388;2024-03-29T04:39:11;7.40;99.90
19152;DHT22;9708;53.114;9.388;2024-03-29T04:41:38;7.40;99.90
19152;DHT22;9708;53.114;9.388;2024-03-29T04:44:04;7.40;99.90
19152;DHT22;9708;53.114;9.388;2024-03-29T04:46:33;7.50;99.90
19152;DHT22;9708;53.114;9.388;2024-03-29T04:49:00;7.50;99.90
19152;DHT22;9708;53.114;9.388;2024-03-29T04:51:27;7.50;99.90
19152;DHT22;9708;53.114;9.388;2024-03-29T04:53:54;7.40;99.90
19152;DHT22;9708;53.114;9.388;2024-03-29T04:56:22;7.50;99.90
19152;DHT22;9708;53.114;9.388;2024-03-29T04:58:49;7.50;99.90
19152;DHT22;9708;53.114;9.388;2024-03-29T05:01:16;7.60;99.90
19152;DHT22;9708;53.114;9.388;2024-03-29T05:03:42;7.60;99.90
19152;DHT22;9708;53.114;9.388;2024-03-29T05:06:10;7.50;99.90
19152;DHT22;9708;53.114;9.388;2024-03-29T05:08:37;7.50;99.90
19152;DHT22;9708;53.114;9.388;2024-03-29T05:11:04;7.50;99.90
19152;DHT22;9708;53.114;9.388;2024-03-29T05:13:32;7.50;99.90
19152;DHT22;9708;53.114;9.388;2024-03-29T05:16:00;7.60;99.90
19152;DHT22;9708;53.114;9.388;2024-03-29T05:18:27;7.60;99.90
19152;DHT22;9708;53.114;9.388;2024-03-29T05:20:54;7.60;99.90
19152;DHT22;9708;53.114;9.388;2024-03-29T05:23:21;7.60;99.90
19152;DHT22;9708;53.114;9.388;2024-03-29T05:25:47;7.60;99.90
19152;DHT22;9708;53.114;9.388;2024-03-29T05:28:15;7.70;99.90
19152;DHT22;9708;53.114;9.388;2024-03-29T05:30:43;7.70;99.90
19152;DHT22;9708;53.114;9.388;2024-03-29T05:33:10;7.70;99.90
19152;DHT22;9708;53.114;9.388;2024-03-29T05:35:37;7.80;99.90
19152;DHT22;9708;53.114;9.388;2024-03-29T05:38:04;7.80;99.90
19152;DHT22;9708;53.114;9.388;2024-03-29T05:40:31;7.70;99.90
19152;DHT22;9708;53.114;9.388;2024-03-29T05:42:57;7.80;99.90
19152;DHT22;9708;53.114;9.388;2024-03-29T05:45:25;7.90;99.90
19152;DHT22;9708;53.114;9.388;2024-03-29T05:47:55;7.90;99.90
19152;DHT22;9708;53.114;9.388;2024-03-29T05:50:23;7.90;99.90
19152;DHT22;9708;53.114;9.388;2024-03-29T05:52:50;8.00;99.90
19152;DHT22;9708;53.114;9.388;2024-03-29T05:55:17;8.00;99.90
19152;DHT22;9708;53.114;9.388;2024-03-29T05:57:44;8.00;99.90
19152;DHT22;9708;53.114;9.388;2024-03-29T06:00:12;8.00;99.90
19152;DHT22;9708;53.114;9.388;2024-03-29T06:02:41;8.10;99.90
19152;DHT22;9708;53.114;9.388;2024-03-29T06:05:09;8.10;99.90
19152;DHT22;9708;53.114;9.388;2024-03-29T06:07:36;8.10;99.90
19152;DHT22;9708;53.114;9.388;2024-03-29T06:10:04;8.30;99.90
19152;DHT22;9708;53.114;9.388;2024-03-29T06:12:32;8.30;99.90
19152;DHT22;9708;53.114;9.388;2024-03-29T06:14:59;8.40;99.90
19152;DHT22;9708;53.114;9.388;2024-03-29T06:17:43;8.40;99.90
19152;DHT22;9708;53.114;9.388;2024-03-29T06:20:12;8.50;99.90
19152;DHT22;9708;53.114;9.388;2024-03-29T06:22:39;8.60;99.90
19152;DHT22;9708;53.114;9.388;2024-03-29T06:25:07;8.60;99.90
19152;DHT22;9708;53.114;9.388;2024-03-29T06:27:35;8.70;99.90
19152;DHT22;9708;53.114;9.388;2024-03-29T06:30:03;8.70;99.90
19152;DHT22;9708;53.114;9.388;2024-03-29T06:32:31;8.70;99.90
19152;DHT22;9708;53.114;9.388;2024-03-29T06:34:59;8.80;99.90
19152;DHT22;9708;53.114;9.388;2024-03-29T06:37:28;8.90;99.90
19152;DHT22;9708;53.114;9.388;2024-03-29T06:39:55;8.90;99.90
19152;DHT22;9708;53.114;9.388;2024-03-29T06:42:22;8.90;99.90
19152;DHT22;9708;53.114;9.388;2024-03-29T06:44:49;9.00;99.90
19152;DHT22;9708;53.114;9.388;2024-03-29T06:47:17;9.00;99.90
19152;DHT22;9708;53.114;9.388;2024-03-29T06:49:44;9.10;99.90
19152;DHT22;9708;53.114;9.388;2024-03-29T06:52:12;9.10;99.90
19152;DHT22;9708;53.114;9.388;2024-03-29T06:54:40;9.20;99.90
19152;DHT22;9708;53.114;9.388;2024-03-29T06:57:07;9.30;99.90
19152;DHT22;9708;53.114;9.388;2024-03-29T06:59:35;9.30;99.90
19152;DHT22;9708;53.114;9.388;2024-03-29T07:02:03;9.30;99.90
19152;DHT22;9708;53.114;9.388;2024-03-29T07:04:30;9.40;99.90
19152;DHT22;9708;53.114;9.388;2024-03-29T07:06:58;9.40;99.90
19152;DHT22;9708;53.114;9.388;2024-03-29T07:09:25;9.40;99.90
19152;DHT22;9708;53.114;9.388;2024-03-29T07:11:54;9.30;99.90
19152;DHT22;9708;53.114;9.388;2024-03-29T07:14:21;9.30;99.90
19152;DHT22;9708;53.114;9.388;2024-03-29T07:16:49;9.40;99.90
19152;DHT22;9708;53.114;9.388;2024-03-29T07:19:16;9.40;99.90
19152;DHT22;9708;53.114;9.388;2024-03-29T07:21:44;9.40;99.90
19152;DHT22;9708;53.114;9.388;2024-03-29T07:24:11;9.40;99.90
19152;DHT22;9708;53.114;9.388;2024-03-29T07:26:38;9.40;99.90
19152;DHT22;9708;53.114;9.388;2024-03-29T07:29:06;9.40;99.90
19152;DHT22;9708;53.114;9.388;2024-03-29T07:31:34;9.30;99.90
19152;DHT22;9708;53.114;9.388;2024-03-29T07:34:01;9.30;99.90
19152;DHT22;9708;53.114;9.388;2024-03-29T07:36:28;9.30;99.90
19152;DHT22;9708;53.114;9.388;2024-03-29T07:39:00;9.30;99.90
19152;DHT22;9708;53.114;9.388;2024-03-29T07:41:27;9.20;99.90
19152;DHT22;9708;53.114;9.388;2024-03-29T07:43:54;9.30;99.90
19152;DHT22;9708;53.114;9.388;2024-03-29T07:46:27;9.30;99.90
19152;DHT22;9708;53.114;9.388;2024-03-29T07:48:54;9.30;99.90
19152;DHT22;9708;53.114;9.388;2024-03-29T07:51:21;9.40;99.90
19152;DHT22;9708;53.114;9.388;2024-03-29T07:53:48;9.50;99.90
19152;DHT22;9708;53.114;9.388;2024-03-29T07:56:15;9.70;99.90
19152;DHT22;9708;53.114;9.388;2024-03-29T07:58:42;9.70;99.90
19152;DHT22;9708;53.114;9.388;2024-03-29T08:01:09;9.80;99.90
19152;DHT22;9708;53.114;9.388;2024-03-29T08:03:37;9.90;99.90
19152;DHT22;9708;53.114;9.388;2024-03-29T08:06:05;9.80;99.90
19152;DHT22;9708;53.114;9.388;2024-03-29T08:08:31;9.70;99.90
19152;DHT22;9708;53.114;9.388;2024-03-29T08:10:59;9.60;99.90
19152;DHT22;9708;53.114;9.388;2024-03-29T08:13:26;9.60;99.90
19152;DHT22;9708;53.114;9.388;2024-03-29T08:15:57;9.50;99.90
19152;DHT22;9708;53.114;9.388;2024-03-29T08:18:25;9.50;99.90
19152;DHT22;9708;53.114;9.388;2024-03-29T08:20:54;9.40;99.90
19152;DHT22;9708;53.114;9.388;2024-03-29T08:23:22;9.40;99.90
19152;DHT22;9708;53.114;9.388;2024-03-29T08:25:49;9.40;99.90
19152;DHT22;9708;53.114;9.388;2024-03-29T08:28:17;9.50;99.90
19152;DHT22;9708;53.114;9.388;2024-03-29T08:30:44;9.70;99.90
19152;DHT22;9708;53.114;9.388;2024-03-29T08:33:11;9.90;99.90
19152;DHT22;9708;53.114;9.388;2024-03-29T08:35:38;10.20;99.90
19152;DHT22;9708;53.114;9.388;2024-03-29T08:38:10;10.30;99.90
19152;DHT22;9708;53.114;9.388;2024-03-29T08:40:38;10.00;99.90
19152;DHT22;9708;53.114;9.388;2024-03-29T08:43:09;9.80;99.90
19152;DHT22;9708;53.114;9.388;2024-03-29T08:45:36;9.70;99.90
19152;DHT22;9708;53.114;9.388;2024-03-29T08:48:06;9.60;99.90
19152;DHT22;9708;53.114;9.388;2024-03-29T08:50:33;9.50;99.90
19152;DHT22;9708;53.114;9.388;2024-03-29T08:53:00;9.60;99.90
19152;DHT22;9708;53.114;9.388;2024-03-29T08:55:28;9.50;99.90
19152;DHT22;9708;53.114;9.388;2024-03-29T08:57:56;9.50;99.90
19152;DHT22;9708;53.114;9.388;2024-03-29T09:00:24;9.50;99.90
19152;DHT22;9708;53.114;9.388;2024-03-29T09:02:50;9.60;99.90
19152;DHT22;9708;53.114;9.388;2024-03-29T09:05:17;9.60;99.90
19152;DHT22;9708;53.114;9.388;2024-03-29T09:07:44;9.80;99.90
19152;DHT22;9708;53.114;9.388;2024-03-29T09:10:12;9.80;99.90
19152;DHT22;9708;53.114;9.388;2024-03-29T09:12:40;9.90;99.90
19152;DHT22;9708;53.114;9.388;2024-03-29T09:15:08;10.00;99.90
19152;DHT22;9708;53.114;9.388;2024-03-29T09:17:39;10.20;99.90
19152;DHT22;9708;53.114;9.388;2024-03-29T09:20:07;9.90;99.90
19152;DHT22;9708;53.114;9.388;2024-03-29T09:22:34;9.90;99.90
19152;DHT22;9708;53.114;9.388;2024-03-29T09:25:03;9.90;99.90
19152;DHT22;9708;53.114;9.388;2024-03-29T09:27:30;9.80;99.90
19152;DHT22;9708;53.114;9.388;2024-03-29T09:30:00;9.60;99.90
19152;DHT22;9708;53.114;9.388;2024-03-29T09:32:27;9.60;99.90
19152;DHT22;9708;53.114;9.388;2024-03-29T09:34:54;9.70;99.90
19152;DHT22;9708;53.114;9.388;2024-03-29T09:37:21;9.70;99.90
19152;DHT22;9708;53.114;9.388;2024-03-29T09:39:49;9.70;99.90
19152;DHT22;9708;53.114;9.388;2024-03-29T09:42:17;9.70;99.90
19152;DHT22;9708;53.114;9.388;2024-03-29T09:44:44;9.80;99.90
19152;DHT22;9708;53.114;9.388;2024-03-29T09:47:17;9.70;99.90
19152;DHT22;9708;53.114;9.388;2024-03-29T09:49:48;9.60;99.90
19152;DHT22;9708;53.114;9.388;2024-03-29T09:52:17;9.60;99.90
19152;DHT22;9708;53.114;9.388;2024-03-29T09:54:45;9.70;99.90
19152;DHT22;9708;53.114;9.388;2024-03-29T09:57:12;9.80;99.90
19152;DHT22;9708;53.114;9.388;2024-03-29T09:59:39;10.20;99.90
19152;DHT22;9708;53.114;9.388;2024-03-29T10:02:15;10.90;99.90
19152;DHT22;9708;53.114;9.388;2024-03-29T10:04:43;10.90;99.90
19152;DHT22;9708;53.114;9.388;2024-03-29T10:07:12;11.30;99.90
19152;DHT22;9708;53.114;9.388;2024-03-29T10:09:43;11.60;99.90
19152;DHT22;9708;53.114;9.388;2024-03-29T10:12:10;11.60;99.90
19152;DHT22;9708;53.114;9.388;2024-03-29T10:14:47;11.60;99.90
19152;DHT22;9708;53.114;9.388;2024-03-29T10:17:19;11.50;99.90
19152;DHT22;9708;53.114;9.388;2024-03-29T10:19:46;11.60;99.90
19152;DHT22;9708;53.114;9.388;2024-03-29T10:22:13;11.70;99.90
19152;DHT22;9708;53.114;9.388;2024-03-29T10:24:40;11.80;99.90
19152;DHT22;9708;53.114;9.388;2024-03-29T10:27:06;11.70;99.90
19152;DHT22;9708;53.114;9.388;2024-03-29T10:29:33;11.70;99.90
19152;DHT22;9708;53.114;9.388;2024-03-29T10:32:00;11.60;99.90
19152;DHT22;9708;53.114;9.388;2024-03-29T10:34:29;11.60;99.90
19152;DHT22;9708;53.114;9.388;2024-03-29T10:37:00;11.70;99.90
19152;DHT22;9708;53.114;9.388;2024-03-29T10:39:29;11.70;99.90
19152;DHT22;9708;53.114;9.388;2024-03-29T10:41:57;11.80;99.90
19152;DHT22;9708;53.114;9.388;2024-03-29T10:44:25;11.60;99.90
19152;DHT22;9708;53.114;9.388;2024-03-29T10:46:54;11.60;99.90
19152;DHT22;9708;53.114;9.388;2024-03-29T10:49:23;11.60;99.90
19152;DHT22;9708;53.114;9.388;2024-03-29T10:51:53;11.40;99.90
19152;DHT22;9708;53.114;9.388;2024-03-29T10:54:22;11.50;99.90
19152;DHT22;9708;53.114;9.388;2024-03-29T10:56:57;11.40;99.90
19152;DHT22;9708;53.114;9.388;2024-03-29T10:59:31;11.30;99.90
19152;DHT22;9708;53.114;9.388;2024-03-29T11:02:00;11.20;99.90
19152;DHT22;9708;53.114;9.388;2024-03-29T11:04:33;11.20;99.90
19152;DHT22;9708;53.114;9.388;2024-03-29T11:07:06;11.20;99.90
19152;DHT22;9708;53.114;9.388;2024-03-29T11:09:35;11.30;99.90
19152;DHT22;9708;53.114;9.388;2024-03-29T11:12:04;11.30;99.90
19152;DHT22;9708;53.114;9.388;2024-03-29T11:14:34;11.40;99.90
19152;DHT22;9708;53.114;9.388;2024-03-29T11:17:03;11.50;99.90
19152;DHT22;9708;53.114;9.388;2024-03-29T11:19:31;11.50;99.90
19152;DHT22;9708;53.114;9.388;2024-03-29T11:21:58;11.50;99.90
19152;DHT22;9708;53.114;9.388;2024-03-29T11:24:27;11.60;99.90
19152;DHT22;9708;53.114;9.388;2024-03-29T11:26:55;11.90;99.90
19152;DHT22;9708;53.114;9.388;2024-03-29T11:29:22;12.40;99.90
19152;DHT22;9708;53.114;9.388;2024-03-29T11:31:56;12.50;99.90
19152;DHT22;9708;53.114;9.388;2024-03-29T11:34:24;12.70;99.90
19152;DHT22;9708;53.114;9.388;2024-03-29T11:36:51;12.60;99.90
19152;DHT22;9708;53.114;9.388;2024-03-29T11:39:21;12.70;99.90
19152;DHT22;9708;53.114;9.388;2024-03-29T11:41:50;13.00;99.90
19152;DHT22;9708;53.114;9.388;2024-03-29T11:44:17;13.00;99.90
19152;DHT22;9708;53.114;9.388;2024-03-29T11:46:45;13.40;99.90
19152;DHT22;9708;53.114;9.388;2024-03-29T11:49:13;13.50;99.90
19152;DHT22;9708;53.114;9.388;2024-03-29T11:51:41;13.20;99.90
19152;DHT22;9708;53.114;9.388;2024-03-29T11:54:08;13.00;99.90
19152;DHT22;9708;53.114;9.388;2024-03-29T11:56:36;13.10;99.90
19152;DHT22;9708;53.114;9.388;2024-03-29T11:59:05;13.10;99.90
19152;DHT22;9708;53.114;9.388;2024-03-29T12:01:32;13.00;99.90
19152;DHT22;9708;53.114;9.388;2024-03-29T12:04:00;13.30;99.90
19152;DHT22;9708;53.114;9.388;2024-03-29T12:06:27;13.40;99.90
19152;DHT22;9708;53.114;9.388;2024-03-29T12:08:54;13.40;99.90
19152;DHT22;9708;53.114;9.388;2024-03-29T12:11:22;13.30;99.90
19152;DHT22;9708;53.114;9.388;2024-03-29T12:13:51;13.10;99.90
19152;DHT22;9708;53.114;9.388;2024-03-29T12:16:19;13.40;99.90
19152;DHT22;9708;53.114;9.388;2024-03-29T12:18:47;13.40;99.90
19152;DHT22;9708;53.114;9.388;2024-03-29T12:21:14;13.30;99.90
19152;DHT22;9708;53.114;9.388;2024-03-29T12:23:47;13.70;99.90
19152;DHT22;9708;53.114;9.388;2024-03-29T12:26:14;13.70;99.90
19152;DHT22;9708;53.114;9.388;2024-03-29T12:28:41;13.90;99.90
19152;DHT22;9708;53.114;9.388;2024-03-29T12:31:09;14.00;99.90
19152;DHT22;9708;53.114;9.388;2024-03-29T12:33:37;14.10;99.90
19152;DHT22;9708;53.114;9.388;2024-03-29T12:36:05;14.50;99.90
19152;DHT22;9708;53.114;9.388;2024-03-29T12:38:32;14.60;99.90
19152;DHT22;9708;53.114;9.388;2024-03-29T12:41:00;14.10;99.90
19152;DHT22;9708;53.114;9.388;2024-03-29T12:43:27;13.80;99.90
19152;DHT22;9708;53.114;9.388;2024-03-29T12:45:54;13.60;99.90
19152;DHT22;9708;53.114;9.388;2024-03-29T12:48:22;13.60;99.90
19152;DHT22;9708;53.114;9.388;2024-03-29T12:50:51;13.80;99.90
19152;DHT22;9708;53.114;9.388;2024-03-29T12:53:19;13.90;99.90
19152;DHT22;9708;53.114;9.388;2024-03-29T12:55:47;14.10;99.90
19152;DHT22;9708;53.114;9.388;2024-03-29T12:58:15;13.80;99.90
19152;DHT22;9708;53.114;9.388;2024-03-29T13:00:44;13.70;99.90
19152;DHT22;9708;53.114;9.388;2024-03-29T13:03:11;13.90;99.90
19152;DHT22;9708;53.114;9.388;2024-03-29T13:05:39;13.60;99.90
19152;DHT22;9708;53.114;9.388;2024-03-29T13:08:09;13.70;99.90
19152;DHT22;9708;53.114;9.388;2024-03-29T13:10:37;13.70;99.90
19152;DHT22;9708;53.114;9.388;2024-03-29T13:13:04;13.50;99.90
19152;DHT22;9708;53.114;9.388;2024-03-29T13:15:33;13.60;99.90
19152;DHT22;9708;53.114;9.388;2024-03-29T13:18:00;13.40;99.90
19152;DHT22;9708;53.114;9.388;2024-03-29T13:20:27;13.40;99.90
19152;DHT22;9708;53.114;9.388;2024-03-29T13:22:54;13.70;99.90
19152;DHT22;9708;53.114;9.388;2024-03-29T13:25:24;14.00;99.90
19152;DHT22;9708;53.114;9.388;2024-03-29T13:27:53;13.80;99.90
19152;DHT22;9708;53.114;9.388;2024-03-29T13:30:21;14.00;99.90
19152;DHT22;9708;53.114;9.388;2024-03-29T13:32:49;13.70;99.90
19152;DHT22;9708;53.114;9.388;2024-03-29T13:35:16;13.40;99.90
19152;DHT22;9708;53.114;9.388;2024-03-29T13:37:45;13.50;99.90
19152;DHT22;9708;53.114;9.388;2024-03-29T13:40:12;13.60;99.90
19152;DHT22;9708;53.114;9.388;2024-03-29T13:42:41;13.40;99.90
19152;DHT22;9708;53.114;9.388;2024-03-29T13:45:09;13.50;99.90
19152;DHT22;9708;53.114;9.388;2024-03-29T13:47:37;13.50;99.90
19152;DHT22;9708;53.114;9.388;2024-03-29T13:50:04;13.90;99.90
19152;DHT22;9708;53.114;9.388;2024-03-29T13:52:31;14.00;99.90
19152;DHT22;9708;53.114;9.388;2024-03-29T13:54:59;14.00;99.90
19152;DHT22;9708;53.114;9.388;2024-03-29T13:57:26;14.30;99.90
19152;DHT22;9708;53.114;9.388;2024-03-29T13:59:54;14.80;99.90
19152;DHT22;9708;53.114;9.388;2024-03-29T14:02:22;15.30;99.90
19152;DHT22;9708;53.114;9.388;2024-03-29T14:04:51;15.00;99.90
19152;DHT22;9708;53.114;9.388;2024-03-29T14:07:18;14.50;99.90
19152;DHT22;9708;53.114;9.388;2024-03-29T14:09:46;14.80;99.90
19152;DHT22;9708;53.114;9.388;2024-03-29T14:12:13;15.30;99.90
19152;DHT22;9708;53.114;9.388;2024-03-29T14:14:41;15.30;99.90
19152;DHT22;9708;53.114;9.388;2024-03-29T14:17:09;15.30;99.90
19152;DHT22;9708;53.114;9.388;2024-03-29T14:19:36;15.10;99.90
19152;DHT22;9708;53.114;9.388;2024-03-29T14:22:04;14.70;99.90
19152;DHT22;9708;53.114;9.388;2024-03-29T14:24:31;14.70;99.90
19152;DHT22;9708;53.114;9.388;2024-03-29T14:27:01;14.80;99.90
19152;DHT22;9708;53.114;9.388;2024-03-29T14:29:28;14.90;99.90
19152;DHT22;9708;53.114;9.388;2024-03-29T14:31:55;14.70;99.90
19152;DHT22;9708;53.114;9.388;2024-03-29T14:34:24;14.90;99.90
19152;DHT22;9708;53.114;9.388;2024-03-29T14:36:52;14.90;99.90
19152;DHT22;9708;53.114;9.388;2024-03-29T14:39:19;14.70;99.90
19152;DHT22;9708;53.114;9.388;2024-03-29T14:41:46;14.70;99.90
19152;DHT22;9708;53.114;9.388;2024-03-29T14:44:15;14.50;99.90
19152;DHT22;9708;53.114;9.388;2024-03-29T14:46:42;14.50;99.90
19152;DHT22;9708;53.114;9.388;2024-03-29T14:49:09;14.60;99.90
19152;DHT22;9708;53.114;9.388;2024-03-29T14:51:39;14.70;99.90
19152;DHT22;9708;53.114;9.388;2024-03-29T14:54:06;14.60;99.90
19152;DHT22;9708;53.114;9.388;2024-03-29T14:56:33;14.60;99.90
19152;DHT22;9708;53.114;9.388;2024-03-29T14:59:02;14.30;99.90
19152;DHT22;9708;53.114;9.388;2024-03-29T15:01:29;14.20;99.90
19152;DHT22;9708;53.114;9.388;2024-03-29T15:03:57;14.10;99.90
19152;DHT22;9708;53.114;9.388;2024-03-29T15:06:24;14.10;99.90
19152;DHT22;9708;53.114;9.388;2024-03-29T15:08:53;14.10;99.90
19152;DHT22;9708;53.114;9.388;2024-03-29T15:11:22;14.10;99.90
19152;DHT22;9708;53.114;9.388;2024-03-29T15:13:49;14.10;99.90
19152;DHT22;9708;53.114;9.388;2024-03-29T15:16:17;14.10;99.90
19152;DHT22;9708;53.114;9.388;2024-03-29T15:18:44;14.00;99.90
19152;DHT22;9708;53.114;9.388;2024-03-29T15:21:11;14.00;99.90
19152;DHT22;9708;53.114;9.388;2024-03-29T15:23:38;14.00;99.90
19152;DHT22;9708;53.114;9.388;2024-03-29T15:26:06;13.90;99.90
19152;DHT22;9708;53.114;9.388;2024-03-29T15:28:34;13.90;99.90
19152;DHT22;9708;53.114;9.388;2024-03-29T15:31:19;13.80;99.90
19152;DHT22;9708;53.114;9.388;2024-03-29T15:33:48;13.80;99.90
19152;DHT22;9708;53.114;9.388;2024-03-29T15:36:15;13.90;99.90
19152;DHT22;9708;53.114;9.388;2024-03-29T15:38:42;13.80;99.90
19152;DHT22;9708;53.114;9.388;2024-03-29T15:41:11;13.80;99.90
19152;DHT22;9708;53.114;9.388;2024-03-29T15:43:38;13.70;99.90
19152;DHT22;9708;53.114;9.388;2024-03-29T15:46:06;13.70;99.90
19152;DHT22;9708;53.114;9.388;2024-03-29T15:48:34;13.60;99.90
19152;DHT22;9708;53.114;9.388;2024-03-29T15:51:01;13.70;99.90
19152;DHT22;9708;53.114;9.388;2024-03-29T15:53:28;13.80;99.90
19152;DHT22;9708;53.114;9.388;2024-03-29T15:55:55;13.70;99.90
19152;DHT22;9708;53.114;9.388;2024-03-29T15:58:25;13.70;99.90